Time;durP1;ratioP1;P1;durP2;ratioP2;P2;SDS_P1;SDS_P2;PMS_P1;PMS_P2;Temp;Humidity;BMP_temperature;BMP_pressure;BME280_temperature;BME280_humidity;BME280_pressure;Samples;Min_cycle;Max_cycle;Signal;HPM_P1;HPM_P2
2020/12/18 00:00:35;;;;;;;72.22;34.03;;;5.30;91.80;;;;;;5110250;28;20032;-47
2020/12/18 00:03:01;;;;;;;69.55;34.15;;;5.40;91.70;;;;;;5094733;28;20031;-47
2020/12/18 00:05:32;;;;;;;83.43;37.42;;;5.60;91.20;;;;;;5094560;28;20032;-47
2020/12/18 00:07:59;;;;;;;89.93;38.30;;;5.70;90.40;;;;;;5093318;28;20112;-47
2020/12/18 00:10:26;;;;;;;87.47;37.67;;;5.60;90.70;;;;;;5094688;28;20068;-47
2020/12/18 00:13:01;;;;;;;81.70;37.53;;;5.90;90.50;;;;;;5092620;28;20074;-47
2020/12/18 00:15:35;;;;;;;82.80;37.47;;;5.90;91.00;;;;;;5094263;28;20468;-47
2020/12/18 00:18:08;;;;;;;86.65;39.22;;;;;;;;;;5094266;28;20036;-47
2020/12/18 00:20:34;;;;;;;76.18;33.55;;;6.20;88.10;;;;;;5094646;28;20034;-47
2020/12/18 00:23:00;;;;;;;77.20;35.55;;;6.30;88.40;;;;;;5094271;28;20391;-47
2020/12/18 00:25:25;;;;;;;75.15;38.13;;;6.10;88.60;;;;;;5094417;28;20035;-47
2020/12/18 00:27:59;;;;;;;77.82;35.67;;;6.20;88.80;;;;;;5088115;28;20021;-47
2020/12/18 00:30:35;;;;;;;77.78;38.72;;;6.10;88.40;;;;;;5081918;28;20024;-47
2020/12/18 00:33:01;;;;;;;91.50;39.92;;;6.20;88.30;;;;;;5092533;28;20548;-47
2020/12/18 00:35:27;;;;;;;103.20;38.30;;;6.20;88.60;;;;;;5092467;28;20036;-47
2020/12/18 00:37:53;;;;;;;98.85;36.95;;;6.10;89.00;;;;;;5093974;28;20027;-47
2020/12/18 00:40:18;;;;;;;103.57;40.30;;;5.90;89.20;;;;;;5093887;28;20032;-47
2020/12/18 00:42:44;;;;;;;95.80;38.58;;;5.90;89.80;;;;;;5093902;28;20060;-48
2020/12/18 00:45:10;;;;;;;109.65;41.78;;;6.00;89.30;;;;;;5094266;28;20051;-47
2020/12/18 00:47:36;;;;;;;100.85;38.97;;;6.00;88.90;;;;;;5092151;28;20035;-47
2020/12/18 00:50:03;;;;;;;92.30;37.42;;;6.10;89.40;;;;;;5093919;28;20486;-47
2020/12/18 00:52:28;;;;;;;93.63;37.90;;;6.10;88.80;;;;;;5093904;28;20055;-47
2020/12/18 00:54:54;;;;;;;95.10;37.38;;;6.20;88.70;;;;;;5093695;28;20441;-47
2020/12/18 00:57:20;;;;;;;127.25;36.70;;;6.10;88.30;;;;;;5092024;28;20032;-47
2020/12/18 00:59:46;;;;;;;122.20;37.22;;;6.00;88.60;;;;;;5074438;28;20032;-47
2020/12/18 01:02:11;;;;;;;89.45;38.10;;;5.90;89.50;;;;;;5091682;28;20066;-47
2020/12/18 01:04:37;;;;;;;108.63;40.78;;;5.50;90.40;;;;;;5074686;28;20036;-47
2020/12/18 01:07:03;;;;;;;145.80;40.58;;;5.70;90.60;;;;;;5091743;28;20040;-47
2020/12/18 01:09:29;;;;;;;210.35;44.53;;;5.80;90.30;;;;;;5091633;28;20020;-47
2020/12/18 01:11:55;;;;;;;126.00;37.72;;;;;;;;;;5074612;28;20039;-47
2020/12/18 01:14:23;;;;;;;101.70;38.22;;;5.30;90.80;;;;;;5091530;28;20090;-47
2020/12/18 01:16:56;;;;;;;164.10;41.42;;;5.30;91.70;;;;;;5090615;28;20033;-47
2020/12/18 01:19:25;;;;;;;;;;;5.40;91.50;;;;;;5091368;28;20028;-46
2020/12/18 01:21:53;;;;;;;194.23;45.22;;;5.40;91.60;;;;;;5091291;28;19952;-47
2020/12/18 01:24:22;;;;;;;222.40;43.83;;;5.60;91.30;;;;;;5091792;28;20088;-47
2020/12/18 01:26:51;;;;;;;207.68;46.97;;;5.50;91.30;;;;;;5091426;28;20081;-47
2020/12/18 01:29:16;;;;;;;274.48;49.30;;;5.40;91.50;;;;;;5091176;28;20133;-47
2020/12/18 01:31:42;;;;;;;150.82;39.92;;;5.30;91.60;;;;;;5087444;28;20499;-47
2020/12/18 01:34:11;;;;;;;115.32;39.10;;;5.20;91.50;;;;;;5092956;28;20028;-47
2020/12/18 01:36:37;;;;;;;106.15;36.63;;;5.10;91.60;;;;;;5088817;28;20089;-47
2020/12/18 01:39:06;;;;;;;131.45;41.42;;;5.10;91.60;;;;;;5073077;28;20025;-47
2020/12/18 01:41:32;;;;;;;110.00;41.95;;;5.10;91.90;;;;;;5073160;28;20021;-46
2020/12/18 01:44:10;;;;;;;103.70;40.22;;;5.00;92.20;;;;;;5073039;28;20546;-47
2020/12/18 01:46:42;;;;;;;131.38;43.75;;;5.10;91.70;;;;;;5088086;28;20036;-47
2020/12/18 01:49:11;;;;;;;162.68;41.72;;;5.20;91.80;;;;;;5074004;28;20040;-47
2020/12/18 01:51:37;;;;;;;131.75;42.35;;;5.10;92.00;;;;;;5057717;28;20092;-47
2020/12/18 01:54:03;;;;;;;267.17;48.30;;;4.90;92.50;;;;;;5075004;28;20025;-47
2020/12/18 01:56:30;;;;;;;277.95;48.55;;;5.00;92.40;;;;;;5073188;28;20020;-47
2020/12/18 01:58:56;;;;;;;148.32;39.75;;;5.10;92.20;;;;;;5071556;28;20508;-47
2020/12/18 02:01:22;;;;;;;188.90;44.88;;;4.90;92.40;;;;;;5072996;28;20104;-47
2020/12/18 02:03:48;;;;;;;264.13;46.55;;;4.70;93.20;;;;;;5071107;28;20594;-47
2020/12/18 02:06:18;;;;;;;117.70;38.55;;;4.90;93.30;;;;;;5072945;28;20041;-47
2020/12/18 02:08:45;;;;;;;109.05;38.80;;;4.70;93.10;;;;;;5072753;28;20089;-47
2020/12/18 02:11:21;;;;;;;239.65;45.25;;;4.70;93.20;;;;;;5072733;28;20025;-47
2020/12/18 02:13:52;;;;;;;296.15;45.88;;;4.80;93.30;;;;;;5072829;28;20059;-47
2020/12/18 02:16:18;;;;;;;161.23;40.80;;;5.00;92.70;;;;;;5071564;28;20037;-47
2020/12/18 02:18:45;;;;;;;209.10;40.28;;;5.10;92.40;;;;;;5070719;28;20040;-47
2020/12/18 02:21:10;;;;;;;252.98;43.17;;;5.00;92.70;;;;;;5072661;28;20032;-47
2020/12/18 02:23:44;;;;;;;329.85;41.67;;;5.00;92.70;;;;;;5070839;28;20484;-47
2020/12/18 02:26:18;;;;;;;303.92;40.45;;;4.90;92.80;;;;;;5072647;28;20058;-47
2020/12/18 02:28:48;;;;;;;307.83;39.95;;;4.80;92.90;;;;;;5072409;28;20480;-48
2020/12/18 02:31:15;;;;;;;299.55;40.45;;;4.80;93.10;;;;;;5075056;28;20081;-47
2020/12/18 02:33:41;;;;;;;333.05;42.97;;;4.70;93.30;;;;;;5076497;28;20120;-47
2020/12/18 02:36:07;;;;;;;223.77;37.47;;;4.80;93.20;;;;;;5082028;28;20375;-47
2020/12/18 02:38:34;;;;;;;142.68;35.95;;;4.80;93.20;;;;;;5094337;28;20036;-47
2020/12/18 02:41:00;;;;;;;308.60;40.85;;;4.70;93.50;;;;;;5106470;28;20036;-47
2020/12/18 02:43:26;;;;;;;229.18;34.05;;;4.80;93.30;;;;;;5076157;28;20031;-47
2020/12/18 02:45:51;;;;;;;310.02;42.00;;;4.80;93.30;;;;;;5076038;28;20033;-47
2020/12/18 02:48:17;;;;;;;315.38;39.67;;;4.90;93.20;;;;;;5080920;28;20028;-47
2020/12/18 02:50:46;;;;;;;395.35;42.97;;;4.90;93.10;;;;;;5096270;28;20077;-47
2020/12/18 02:53:19;;;;;;;384.77;46.75;;;4.80;93.60;;;;;;5091924;28;20036;-47
2020/12/18 02:55:46;;;;;;;379.85;48.80;;;4.90;93.40;;;;;;5111309;28;20096;-47
2020/12/18 02:58:13;;;;;;;299.02;41.88;;;5.00;93.10;;;;;;5095856;28;20054;-47
2020/12/18 03:00:40;;;;;;;295.73;37.72;;;4.90;93.00;;;;;;5095864;28;20032;-47
2020/12/18 03:03:07;;;;;;;352.60;43.88;;;4.90;93.10;;;;;;5093250;28;20042;-47
2020/12/18 03:05:33;;;;;;;333.02;40.25;;;5.00;93.10;;;;;;5075576;28;20040;-47
2020/12/18 03:07:59;;;;;;;217.95;35.78;;;5.00;93.60;;;;;;5075651;28;20052;-47
2020/12/18 03:10:26;;;;;;;362.50;41.22;;;5.10;92.80;;;;;;5075361;28;20025;-47
2020/12/18 03:12:52;;;;;;;376.95;41.60;;;4.80;93.60;;;;;;5023742;28;20033;-47
2020/12/18 03:15:18;;;;;;;231.30;33.60;;;4.80;93.70;;;;;;5075364;28;20027;-47
2020/12/18 03:17:44;;;;;;;307.23;36.92;;;4.70;93.80;;;;;;5075398;28;20028;-47
2020/12/18 03:20:10;;;;;;;328.80;36.70;;;4.80;94.00;;;;;;5075248;28;20031;-47
2020/12/18 03:22:36;;;;;;;337.92;36.17;;;4.80;93.80;;;;;;5073844;28;20068;-47
2020/12/18 03:25:03;;;;;;;430.23;41.60;;;4.80;93.80;;;;;;5075163;28;20036;-46
2020/12/18 03:27:30;;;;;;;400.88;40.10;;;4.80;93.80;;;;;;5075045;28;20032;-47
2020/12/18 03:30:29;;;;;;;241.27;32.30;;;4.90;93.60;;;;;;5092900;28;20051;-46
2020/12/18 03:32:55;;;;;;;359.13;34.75;;;4.90;93.80;;;;;;5095947;28;20407;-46
2020/12/18 03:35:23;;;;;;;330.50;34.30;;;4.80;93.90;;;;;;5079329;28;20038;-47
2020/12/18 03:37:56;;;;;;;226.25;28.48;;;4.80;94.10;;;;;;5079508;28;20518;-47
2020/12/18 03:40:22;;;;;;;390.90;38.67;;;4.50;94.80;;;;;;5069178;28;20036;-47
2020/12/18 03:42:51;;;;;;;310.40;35.85;;;4.80;94.40;;;;;;5113011;28;20111;-47
2020/12/18 03:45:20;;;;;;;297.85;36.67;;;4.90;94.20;;;;;;5109207;28;20042;-47
2020/12/18 03:47:45;;;;;;;260.45;29.60;;;5.10;93.80;;;;;;5076033;28;20068;-47
2020/12/18 03:50:13;;;;;;;368.15;37.17;;;5.10;93.30;;;;;;5092700;28;20067;-47
2020/12/18 03:52:44;;;;;;;321.73;37.35;;;5.10;93.70;;;;;;5010170;28;20036;-47
2020/12/18 03:55:10;;;;;;;302.02;34.08;;;5.10;93.70;;;;;;5092626;28;20054;-47
2020/12/18 03:57:36;;;;;;;275.75;30.90;;;5.10;93.40;;;;;;5110190;28;20589;-47
2020/12/18 04:00:02;;;;;;;339.23;33.33;;;5.20;93.10;;;;;;5113133;28;20044;-47
2020/12/18 04:02:28;;;;;;;224.02;28.90;;;5.20;93.40;;;;;;5072184;28;20079;-48
2020/12/18 04:04:54;;;;;;;298.83;31.92;;;5.20;93.20;;;;;;5052061;28;20037;-48
2020/12/18 04:07:20;;;;;;;294.42;29.27;;;5.20;93.10;;;;;;5052141;28;20091;-47
2020/12/18 04:09:45;;;;;;;263.05;31.17;;;5.20;93.00;;;;;;5052156;28;20045;-47
2020/12/18 04:12:12;;;;;;;208.45;26.83;;;5.30;92.80;;;;;;5052078;28;20090;-47
2020/12/18 04:14:38;;;;;;;253.82;31.40;;;5.30;92.70;;;;;;5052052;28;20424;-47
2020/12/18 04:17:05;;;;;;;226.38;31.65;;;5.30;92.80;;;;;;5051942;28;20167;-48
2020/12/18 04:19:31;;;;;;;196.48;29.25;;;5.40;92.60;;;;;;5035419;28;20037;-47
2020/12/18 04:21:57;;;;;;;179.68;27.95;;;5.40;92.40;;;;;;5031956;28;20531;-47
2020/12/18 04:24:23;;;;;;;147.35;27.75;;;5.30;92.70;;;;;;5015344;28;20425;-47
2020/12/18 04:26:49;;;;;;;203.82;32.25;;;5.30;92.80;;;;;;5015764;28;20068;-47
2020/12/18 04:29:16;;;;;;;165.10;28.05;;;5.30;92.80;;;;;;5015099;28;20140;-47
2020/12/18 04:31:45;;;;;;;185.43;30.63;;;5.20;93.00;;;;;;5032151;28;20025;-47
2020/12/18 04:34:12;;;;;;;142.93;28.27;;;5.20;93.10;;;;;;5031896;28;20037;-48
2020/12/18 04:36:38;;;;;;;134.57;30.92;;;5.20;93.10;;;;;;5031806;28;20037;-47
2020/12/18 04:39:04;;;;;;;76.90;27.83;;;5.30;92.70;;;;;;5031801;28;20076;-47
2020/12/18 04:41:31;;;;;;;80.97;29.52;;;5.30;92.30;;;;;;5038097;28;20466;-47
2020/12/18 04:43:57;;;;;;;71.95;28.30;;;5.40;92.10;;;;;;5071651;28;20054;-47
2020/12/18 04:46:24;;;;;;;75.55;27.55;;;5.40;92.20;;;;;;5071650;28;20488;-47
2020/12/18 04:48:50;;;;;;;65.40;25.52;;;5.40;92.10;;;;;;5071539;28;20630;-47
2020/12/18 04:51:25;;;;;;;66.18;24.98;;;5.50;92.00;;;;;;5071560;28;20028;-48
2020/12/18 04:53:52;;;;;;;78.68;29.98;;;5.40;92.20;;;;;;5071013;28;20074;-47
2020/12/18 04:56:25;;;;;;;71.97;25.20;;;5.40;92.30;;;;;;5052902;28;20040;-48
2020/12/18 04:58:55;;;;;;;73.05;26.73;;;5.20;92.50;;;;;;5074525;28;20049;-47
2020/12/18 05:01:25;;;;;;;93.68;26.27;;;5.20;92.80;;;;;;5093965;28;20024;-47
2020/12/18 05:03:52;;;;;;;97.65;28.88;;;5.00;93.10;;;;;;5086207;28;20028;-47
2020/12/18 05:06:19;;;;;;;123.03;28.67;;;5.20;93.00;;;;;;5073465;28;20399;-47
2020/12/18 05:08:45;;;;;;;70.97;21.67;;;5.10;93.20;;;;;;5086099;28;20020;-47
2020/12/18 05:11:17;;;;;;;102.90;27.00;;;5.00;93.10;;;;;;5075920;28;20033;-47
2020/12/18 05:13:44;;;;;;;;;;;5.00;93.40;;;;;;5076003;28;20036;-47
2020/12/18 05:16:10;;;;;;;85.65;26.05;;;4.90;93.50;;;;;;5072327;28;20363;-47
2020/12/18 05:18:36;;;;;;;76.97;26.98;;;4.90;93.70;;;;;;5090298;28;20407;-47
2020/12/18 05:21:02;;;;;;;110.70;28.90;;;4.90;93.60;;;;;;5091492;28;20032;-47
2020/12/18 05:23:28;;;;;;;106.22;28.95;;;4.80;94.30;;;;;;5091275;28;20388;-47
2020/12/18 05:25:54;;;;;;;96.13;29.95;;;4.80;94.00;;;;;;5054860;28;20044;-47
2020/12/18 05:28:21;;;;;;;87.70;29.75;;;5.00;93.80;;;;;;5070796;28;20048;-47
2020/12/18 05:30:48;;;;;;;72.05;27.13;;;5.00;93.50;;;;;;5039136;28;20035;-47
2020/12/18 05:33:15;;;;;;;63.88;26.73;;;5.10;93.00;;;;;;5073401;28;20025;-47
2020/12/18 05:35:41;;;;;;;62.08;25.83;;;5.20;92.80;;;;;;5091161;28;20460;-47
2020/12/18 05:38:07;;;;;;;64.93;25.48;;;5.30;92.50;;;;;;5080316;28;20060;-47
2020/12/18 05:40:33;;;;;;;62.55;27.17;;;5.40;92.50;;;;;;5071227;28;20544;-48
2020/12/18 05:43:06;;;;;;;59.05;26.75;;;5.60;91.90;;;;;;5080522;28;20036;-47
2020/12/18 05:45:32;;;;;;;53.40;18.58;;;5.60;91.80;;;;;;5090077;28;20031;-47
2020/12/18 05:48:00;;;;;;;56.25;21.13;;;5.30;91.80;;;;;;5089280;28;20032;-47
2020/12/18 05:50:37;;;;;;;68.15;24.75;;;5.20;92.50;;;;;;5093064;28;20468;-47
2020/12/18 05:53:05;;;;;;;53.80;21.63;;;5.30;92.60;;;;;;5093094;28;20471;-47
2020/12/18 05:55:37;;;;;;;54.85;22.95;;;5.30;92.10;;;;;;5093301;28;20016;-47
2020/12/18 05:58:03;;;;;;;62.78;25.30;;;5.40;91.70;;;;;;5075512;28;20077;-48
2020/12/18 06:00:29;;;;;;;51.40;22.08;;;5.50;91.70;;;;;;5070942;28;20036;-47
2020/12/18 06:03:02;;;;;;;65.47;25.27;;;5.50;91.70;;;;;;5073089;28;20115;-48
2020/12/18 06:05:28;;;;;;;66.00;25.02;;;5.40;92.30;;;;;;5074690;28;20073;-46
2020/12/18 06:07:54;;;;;;;55.17;23.60;;;5.60;91.80;;;;;;5076697;28;20410;-47
2020/12/18 06:10:24;;;;;;;59.33;26.55;;;5.60;91.40;;;;;;5076596;28;20086;-47
2020/12/18 06:13:01;;;;;;;64.78;26.63;;;5.50;91.80;;;;;;5095360;28;20032;-47
2020/12/18 06:15:27;;;;;;;57.20;25.23;;;5.60;91.90;;;;;;5096790;28;20024;-47
2020/12/18 06:17:54;;;;;;;66.72;25.40;;;5.70;91.40;;;;;;5096792;28;20380;-47
2020/12/18 06:20:20;;;;;;;55.95;24.63;;;5.80;91.40;;;;;;5096695;28;20108;-47
2020/12/18 06:22:58;;;;;;;65.30;29.38;;;5.90;90.90;;;;;;5096613;28;20081;-48
2020/12/18 06:25:24;;;;;;;53.25;25.48;;;;;;;;;;5094646;28;20434;-48
2020/12/18 06:28:00;;;;;;;49.42;24.20;;;6.10;90.10;;;;;;5084760;28;20099;-48
2020/12/18 06:30:27;;;;;;;41.92;19.95;;;6.20;90.30;;;;;;5080534;28;20039;-48
2020/12/18 06:32:53;;;;;;;59.58;22.35;;;6.20;89.80;;;;;;5075157;28;20021;-47
2020/12/18 06:35:26;;;;;;;53.88;24.27;;;6.20;89.60;;;;;;5072997;28;20040;-47
2020/12/18 06:37:52;;;;;;;53.30;23.15;;;6.10;90.30;;;;;;5074946;28;20082;-47
2020/12/18 06:40:27;;;;;;;54.90;23.42;;;6.20;90.00;;;;;;5074958;28;20020;-47
2020/12/18 06:42:56;;;;;;;65.95;25.40;;;6.30;89.90;;;;;;5074690;28;20040;-47
2020/12/18 06:45:22;;;;;;;56.05;24.58;;;6.30;89.60;;;;;;5074651;28;20384;-47
2020/12/18 06:47:47;;;;;;;56.90;24.95;;;6.40;89.50;;;;;;5072611;28;20087;-47
2020/12/18 06:50:15;;;;;;;59.85;28.30;;;6.50;89.30;;;;;;5074790;28;20028;-47
2020/12/18 06:52:47;;;;;;;85.35;42.42;;;6.40;88.90;;;;;;5074651;28;20071;-47
2020/12/18 06:55:33;;;;;;;73.07;35.00;;;6.50;88.90;;;;;;5074650;28;20391;-47
2020/12/18 06:58:08;;;;;;;51.22;24.27;;;6.50;88.80;;;;;;5071901;28;20059;-48
2020/12/18 07:00:47;;;;;;;63.05;29.90;;;6.40;89.00;;;;;;5038658;28;20043;-47
2020/12/18 07:03:36;;;;;;;52.58;24.88;;;6.40;89.20;;;;;;5072050;28;20032;-48
2020/12/18 07:06:23;;;;;;;55.10;25.60;;;6.50;87.80;;;;;;5072149;28;20028;-49
2020/12/18 07:08:50;;;;;;;55.25;25.60;;;6.80;92.50;;;;;;5072087;28;20075;-48
2020/12/18 07:11:19;;;;;;;56.63;25.75;;;6.60;87.50;;;;;;5071845;28;20032;-44
2020/12/18 07:13:47;;;;;;;64.72;36.05;;;6.70;87.40;;;;;;5071795;28;20036;-44
2020/12/18 07:16:18;;;;;;;48.28;24.52;;;6.70;87.20;;;;;;5071367;28;20024;-45
2020/12/18 07:18:44;;;;;;;68.57;31.10;;;6.70;86.80;;;;;;5071766;28;20146;-44
2020/12/18 07:21:14;;;;;;;85.72;40.17;;;6.70;86.70;;;;;;5021753;28;20090;-44
2020/12/18 07:23:45;;;;;;;74.38;38.25;;;6.80;87.00;;;;;;5071604;28;20498;-44
2020/12/18 07:26:12;;;;;;;61.28;29.63;;;6.80;86.70;;;;;;5071457;28;20040;-44
2020/12/18 07:28:39;;;;;;;76.25;40.45;;;6.70;86.80;;;;;;5084873;28;20036;-45
2020/12/18 07:31:20;;;;;;;58.88;30.73;;;6.80;86.80;;;;;;5094136;28;20027;-45
2020/12/18 07:33:56;;;;;;;59.25;29.40;;;6.90;86.40;;;;;;5093996;28;20032;-44
2020/12/18 07:36:26;;;;;;;66.97;31.75;;;6.80;86.60;;;;;;5094163;28;20063;-45
2020/12/18 07:38:57;;;;;;;68.50;31.48;;;6.90;86.80;;;;;;5093890;28;20036;-44
2020/12/18 07:41:24;;;;;;;68.72;28.45;;;6.80;87.20;;;;;;5093858;28;20135;-45
2020/12/18 07:43:50;;;;;;;53.90;22.30;;;6.70;87.00;;;;;;5093947;28;20106;-44
2020/12/18 07:46:17;;;;;;;62.97;26.67;;;6.50;87.00;;;;;;5091424;28;20050;-44
2020/12/18 07:48:44;;;;;;;63.10;29.20;;;6.50;87.80;;;;;;5090751;28;20036;-45
2020/12/18 07:51:21;;;;;;;59.40;27.60;;;6.50;88.30;;;;;;5091162;28;20102;-45
2020/12/18 07:53:51;;;;;;;70.65;30.10;;;6.30;89.20;;;;;;5091306;28;20410;-44
2020/12/18 07:56:21;;;;;;;59.72;27.48;;;6.40;89.10;;;;;;5091420;28;20047;-45
2020/12/18 07:58:59;;;;;;;87.35;37.80;;;6.50;89.10;;;;;;5091256;28;20032;-46
2020/12/18 08:01:27;;;;;;;75.18;33.60;;;6.50;89.30;;;;;;5091160;28;20480;-45
2020/12/18 08:03:56;;;;;;;59.28;24.85;;;6.60;88.80;;;;;;5091032;28;20568;-45
2020/12/18 08:06:24;;;;;;;63.55;24.95;;;6.60;88.00;;;;;;5091087;28;20060;-45
2020/12/18 08:08:52;;;;;;;64.68;26.50;;;6.70;88.00;;;;;;5091096;28;20069;-45
2020/12/18 08:11:19;;;;;;;63.13;23.38;;;6.70;88.00;;;;;;5074030;28;20088;-45
2020/12/18 08:13:45;;;;;;;59.65;25.83;;;6.70;88.20;;;;;;5024161;28;20036;-45
2020/12/18 08:16:17;;;;;;;76.97;28.88;;;6.70;88.40;;;;;;5091073;28;20031;-45
2020/12/18 08:18:52;;;;;;;62.95;29.92;;;6.70;88.30;;;;;;5093242;28;20023;-45
2020/12/18 08:21:22;;;;;;;72.68;31.80;;;6.70;88.30;;;;;;5091330;28;20059;-45
2020/12/18 08:24:12;;;;;;;71.85;29.13;;;6.80;88.30;;;;;;5093247;28;20102;-45
2020/12/18 08:26:46;;;;;;;92.45;36.63;;;6.80;87.80;;;;;;5085648;28;20119;-45
2020/12/18 08:29:13;;;;;;;72.30;30.30;;;6.70;88.20;;;;;;5091633;28;20048;-45
2020/12/18 08:31:42;;;;;;;65.18;26.25;;;6.70;88.40;;;;;;5092700;28;20476;-45
2020/12/18 08:34:12;;;;;;;61.88;27.02;;;6.70;88.10;;;;;;5092890;28;20031;-45
2020/12/18 08:36:46;;;;;;;54.53;22.50;;;6.60;89.10;;;;;;5090837;28;20032;-45
2020/12/18 08:39:13;;;;;;;64.68;28.15;;;6.60;88.10;;;;;;5092844;28;20063;-45
2020/12/18 08:41:40;;;;;;;67.30;26.48;;;6.60;89.70;;;;;;5107867;28;20120;-46
2020/12/18 08:44:07;;;;;;;59.38;25.42;;;6.70;89.30;;;;;;5092563;28;20024;-45
2020/12/18 08:46:37;;;;;;;62.88;28.63;;;6.70;88.50;;;;;;5107621;28;20179;-46
2020/12/18 08:49:12;;;;;;;76.18;32.05;;;6.80;88.60;;;;;;5092648;28;20020;-46
2020/12/18 08:51:38;;;;;;;94.18;33.58;;;6.80;88.50;;;;;;5092777;28;20095;-45
2020/12/18 08:54:19;;;;;;;103.47;40.90;;;6.90;88.40;;;;;;5092592;28;20030;-46
2020/12/18 08:56:45;;;;;;;89.47;33.83;;;7.00;88.10;;;;;;5092468;28;20575;-45
2020/12/18 08:59:14;;;;;;;100.50;40.08;;;7.00;88.00;;;;;;5091146;28;20111;-45
2020/12/18 09:01:48;;;;;;;110.97;41.88;;;7.00;88.00;;;;;;5092648;28;20028;-46
2020/12/18 09:04:15;;;;;;;98.10;33.97;;;6.80;88.60;;;;;;5092514;28;20391;-45
2020/12/18 09:06:50;;;;;;;100.30;34.70;;;6.90;88.50;;;;;;5089833;28;20094;-45
2020/12/18 09:09:17;;;;;;;75.07;29.95;;;7.00;88.00;;;;;;5089765;28;20055;-46
2020/12/18 09:11:45;;;;;;;83.60;29.77;;;6.70;89.00;;;;;;5090051;28;20040;-46
2020/12/18 09:14:30;;;;;;;73.72;29.80;;;6.70;89.30;;;;;;5090022;28;20031;-46
2020/12/18 09:16:57;;;;;;;66.47;27.17;;;6.80;88.70;;;;;;5090005;28;20040;-46
2020/12/18 09:19:23;;;;;;;65.93;26.33;;;6.90;88.20;;;;;;5089994;28;20032;-45
2020/12/18 09:21:49;;;;;;;67.20;26.58;;;6.70;89.20;;;;;;5089856;28;20111;-46
2020/12/18 09:24:19;;;;;;;59.38;25.00;;;6.90;88.80;;;;;;5089808;28;20543;-46
2020/12/18 09:26:46;;;;;;;70.05;28.02;;;6.90;88.20;;;;;;5089848;28;20115;-46
2020/12/18 09:29:18;;;;;;;73.00;34.30;;;6.90;88.60;;;;;;5089632;28;20549;-46
2020/12/18 09:31:45;;;;;;;;;;;7.00;88.40;;;;;;5089813;28;20143;-46
2020/12/18 09:34:17;;;;;;;65.03;28.05;;;7.10;87.90;;;;;;5089786;28;19904;-45
2020/12/18 09:36:43;;;;;;;71.55;27.92;;;7.20;87.30;;;;;;5089974;28;20035;-46
2020/12/18 09:39:09;;;;;;;61.97;27.05;;;7.20;87.50;;;;;;5092157;28;20016;-46
2020/12/18 09:41:34;;;;;;;70.47;28.90;;;7.20;87.10;;;;;;5093811;28;20142;-46
2020/12/18 09:44:00;;;;;;;78.85;33.90;;;7.20;86.80;;;;;;5095994;28;20077;-46
2020/12/18 09:46:26;;;;;;;64.15;26.70;;;7.30;86.90;;;;;;5096122;28;20052;-46
2020/12/18 09:48:52;;;;;;;66.90;28.02;;;7.20;86.30;;;;;;5096022;28;20032;-46
2020/12/18 09:51:18;;;;;;;66.43;28.00;;;7.30;87.00;;;;;;5094901;28;20036;-46
2020/12/18 09:53:45;;;;;;;61.50;26.45;;;7.30;86.50;;;;;;5096233;28;20031;-45
2020/12/18 09:56:12;;;;;;;60.72;28.80;;;7.20;86.50;;;;;;5096103;28;20474;-46
2020/12/18 09:58:38;;;;;;;57.30;27.25;;;7.40;87.30;;;;;;5095772;28;20032;-46
2020/12/18 10:01:04;;;;;;;67.05;31.70;;;7.40;85.70;;;;;;5096007;28;20028;-46
2020/12/18 10:03:30;;;;;;;62.60;28.52;;;7.30;86.40;;;;;;5095755;28;20089;-46
2020/12/18 10:05:56;;;;;;;52.13;26.95;;;7.20;87.00;;;;;;5076361;28;20101;-46
2020/12/18 10:08:21;;;;;;;50.25;25.50;;;7.30;85.60;;;;;;5110758;28;20032;-46
2020/12/18 10:10:47;;;;;;;50.10;26.27;;;7.30;85.60;;;;;;5095832;28;20024;-45
2020/12/18 10:13:17;;;;;;;57.95;29.27;;;7.30;85.80;;;;;;5095715;28;20107;-47
2020/12/18 10:15:43;;;;;;;52.63;25.15;;;7.40;86.30;;;;;;5095722;28;20063;-46
2020/12/18 10:18:09;;;;;;;55.92;30.10;;;7.30;85.70;;;;;;5094585;28;20102;-46
2020/12/18 10:20:35;;;;;;;65.47;32.83;;;7.40;85.50;;;;;;5095609;28;20024;-46
2020/12/18 10:23:00;;;;;;;56.90;29.02;;;7.30;86.60;;;;;;5095710;28;20028;-45
2020/12/18 10:25:26;;;;;;;47.15;25.20;;;7.30;85.40;;;;;;5110358;28;20093;-45
2020/12/18 10:27:52;;;;;;;54.38;25.55;;;7.20;86.10;;;;;;5092884;28;20064;-45
2020/12/18 10:30:18;;;;;;;49.75;26.33;;;7.40;85.80;;;;;;5095389;28;20024;-46
2020/12/18 10:32:45;;;;;;;48.20;24.80;;;7.60;85.30;;;;;;5095507;28;20047;-45
2020/12/18 10:35:10;;;;;;;49.17;26.15;;;7.60;84.90;;;;;;5095344;28;20383;-46
2020/12/18 10:37:37;;;;;;;45.30;24.60;;;7.80;84.70;;;;;;5095267;28;20028;-45
2020/12/18 10:40:04;;;;;;;46.47;26.33;;;7.90;84.40;;;;;;5095317;28;20028;-45
2020/12/18 10:42:30;;;;;;;47.53;26.38;;;7.90;83.40;;;;;;5095015;28;20020;-46
2020/12/18 10:44:56;;;;;;;45.72;25.35;;;7.90;83.00;;;;;;5092938;28;20051;-45
2020/12/18 10:47:22;;;;;;;52.30;25.80;;;7.80;83.90;;;;;;5093018;28;20400;-46
2020/12/18 10:49:47;;;;;;;50.00;27.50;;;7.80;84.00;;;;;;5095234;28;20024;-45
2020/12/18 10:52:13;;;;;;;52.28;27.65;;;8.00;83.80;;;;;;5094000;28;20494;-45
2020/12/18 10:54:39;;;;;;;53.92;30.17;;;8.00;84.50;;;;;;5094747;28;20471;-45
2020/12/18 10:57:04;;;;;;;54.20;29.63;;;7.90;84.50;;;;;;5109830;28;20024;-46
2020/12/18 10:59:31;;;;;;;53.47;28.75;;;8.10;83.50;;;;;;5094832;28;20028;-46
2020/12/18 11:01:58;;;;;;;60.13;30.90;;;8.30;82.40;;;;;;5094756;28;20689;-46
2020/12/18 11:04:25;;;;;;;50.95;27.45;;;8.30;82.50;;;;;;5094667;28;20024;-45
2020/12/18 11:06:51;;;;;;;52.88;27.48;;;8.30;81.60;;;;;;5094498;28;20042;-46
2020/12/18 11:09:17;;;;;;;55.53;30.73;;;8.30;82.10;;;;;;5094672;28;20028;-45
2020/12/18 11:11:49;;;;;;;57.08;28.80;;;8.30;83.30;;;;;;5094150;28;20537;-46
2020/12/18 11:14:14;;;;;;;53.55;29.55;;;8.20;83.00;;;;;;5094676;28;20074;-46
2020/12/18 11:16:41;;;;;;;54.13;29.88;;;8.10;82.00;;;;;;5094477;28;20598;-46
2020/12/18 11:19:07;;;;;;;49.83;29.42;;;7.70;84.30;;;;;;5094591;28;20036;-46
2020/12/18 11:21:32;;;;;;;58.47;30.17;;;8.00;83.60;;;;;;5093535;28;20024;-45
2020/12/18 11:23:58;;;;;;;55.88;29.13;;;8.10;82.80;;;;;;5093450;28;20025;-46
2020/12/18 11:26:25;;;;;;;58.05;29.92;;;8.20;82.60;;;;;;5093511;28;20028;-46
2020/12/18 11:28:51;;;;;;;57.03;28.63;;;8.00;83.00;;;;;;5093429;28;20048;-46
2020/12/18 11:31:17;;;;;;;59.33;32.53;;;8.20;82.30;;;;;;5058305;28;20036;-45
2020/12/18 11:33:43;;;;;;;103.65;47.65;;;8.20;82.60;;;;;;5093866;28;20111;-46
2020/12/18 11:36:09;;;;;;;109.10;50.63;;;8.10;82.50;;;;;;5093972;28;20052;-45
2020/12/18 11:38:35;;;;;;;54.70;30.70;;;8.30;82.90;;;;;;5093926;28;20035;-45
2020/12/18 11:41:01;;;;;;;76.50;41.97;;;8.40;82.00;;;;;;5093985;28;20383;-46
2020/12/18 11:43:26;;;;;;;51.95;28.48;;;8.40;82.20;;;;;;5093943;28;20028;-46
2020/12/18 11:45:52;;;;;;;54.80;29.65;;;8.40;81.60;;;;;;5093696;28;20044;-46
2020/12/18 11:48:18;;;;;;;62.83;36.33;;;8.50;81.50;;;;;;5093897;28;20028;-46
2020/12/18 11:50:46;;;;;;;59.13;33.08;;;8.40;82.20;;;;;;5093764;28;20383;-45
2020/12/18 11:53:12;;;;;;;50.78;30.60;;;7.90;83.70;;;;;;5108547;28;20055;-45
2020/12/18 11:55:38;;;;;;;58.67;31.52;;;7.90;83.20;;;;;;5091459;28;20117;-46
2020/12/18 11:58:04;;;;;;;57.10;32.92;;;7.70;84.80;;;;;;5091291;28;20446;-45
2020/12/18 12:00:31;;;;;;;64.35;33.55;;;7.50;85.20;;;;;;5093387;28;20031;-46
2020/12/18 12:02:57;;;;;;;72.57;36.63;;;7.70;85.70;;;;;;5093143;28;20035;-45
2020/12/18 12:05:23;;;;;;;72.82;39.72;;;7.70;84.80;;;;;;5093473;28;20459;-46
2020/12/18 12:07:49;;;;;;;72.65;38.60;;;7.90;84.90;;;;;;5093126;28;20032;-46
2020/12/18 12:10:17;;;;;;;71.43;39.03;;;7.80;84.60;;;;;;5093409;28;20028;-46
2020/12/18 12:12:43;;;;;;;71.97;38.65;;;7.70;85.50;;;;;;5093127;28;20028;-46
2020/12/18 12:15:09;;;;;;;70.90;37.78;;;7.50;86.60;;;;;;5093430;28;20047;-46
2020/12/18 12:17:35;;;;;;;78.35;38.53;;;7.50;87.10;;;;;;5092336;28;20060;-45
2020/12/18 12:20:01;;;;;;;73.90;37.05;;;7.50;86.60;;;;;;5093311;28;20027;-46
2020/12/18 12:22:28;;;;;;;72.13;39.75;;;7.70;86.60;;;;;;5010600;28;20545;-45
2020/12/18 12:24:55;;;;;;;68.95;36.00;;;7.80;86.20;;;;;;5010725;28;20034;-44
2020/12/18 12:27:23;;;;;;;71.78;37.05;;;7.60;87.00;;;;;;5010882;28;20494;-46
2020/12/18 12:29:49;;;;;;;74.70;38.83;;;7.70;86.70;;;;;;5010596;28;20058;-46
2020/12/18 12:32:15;;;;;;;76.18;38.95;;;7.60;87.30;;;;;;5010809;28;20026;-46
2020/12/18 12:34:41;;;;;;;71.10;38.05;;;7.60;87.70;;;;;;5010656;28;20080;-47
2020/12/18 12:37:07;;;;;;;70.55;38.95;;;7.80;86.30;;;;;;5010634;28;20580;-46
2020/12/18 12:39:33;;;;;;;68.78;38.05;;;7.80;86.60;;;;;;5016943;28;20034;-46